AAL2345 KORD-KDCA
Flight info
| Callsign | AAL2345 |
|---|---|
| Flight time | 1h 21m |
| Altitude | 37000 |
| Route | MOBLE ADIME OTENS ANEWA JERRI NUSMM BUCKO FRDMM6 |
| Aircraft | A319/M-SDE3FGHIRWY/LB1 |
Departure
| Time | 2026-05-04 17:12 |
|---|---|
| Airport | Chicago O'Hare International Airport (KORD) |
Arrival
| Time | 2026-05-04 18:33 |
|---|---|
| Airport | Ronald Reagan Washington National Airport (KDCA) |
| Time | Latitude | Longitude | Altitude | Speed | Heading |
|---|---|---|---|---|---|
| 2026-05-04 16:40 | 41.97470 | -87.89933 | 669 ft | 0 kts | 6° |
| 2026-05-04 17:02 | 41.97440 | -87.89932 | 667 ft | 4 kts | 343° |
| 2026-05-04 17:03 | 41.97415 | -87.89919 | 668 ft | 4 kts | 342° |
| 2026-05-04 17:03 | 41.97395 | -87.89915 | 667 ft | 4 kts | 0° |
| 2026-05-04 17:03 | 41.97354 | -87.89885 | 669 ft | 4 kts | 278° |
| 2026-05-04 17:04 | 41.97381 | -87.89855 | 668 ft | 4 kts | 146° |
| 2026-05-04 17:04 | 41.97399 | -87.89870 | 668 ft | 0 kts | 146° |
| 2026-05-04 17:07 | 41.97396 | -87.89868 | 669 ft | 2 kts | 146° |
| 2026-05-04 17:07 | 41.97369 | -87.89844 | 669 ft | 7 kts | 146° |
| 2026-05-04 17:08 | 41.97312 | -87.89792 | 669 ft | 12 kts | 146° |
| 2026-05-04 17:08 | 41.97235 | -87.89570 | 669 ft | 17 kts | 106° |
| 2026-05-04 17:08 | 41.97195 | -87.89401 | 669 ft | 22 kts | 89° |
| 2026-05-04 17:09 | 41.97196 | -87.89178 | 669 ft | 26 kts | 90° |
| 2026-05-04 17:09 | 41.97197 | -87.88918 | 669 ft | 30 kts | 90° |
| 2026-05-04 17:09 | 41.97195 | -87.88627 | 669 ft | 33 kts | 90° |
| 2026-05-04 17:10 | 41.97197 | -87.88187 | 669 ft | 20 kts | 90° |
| 2026-05-04 17:10 | 41.97037 | -87.88035 | 671 ft | 12 kts | 179° |
| 2026-05-04 17:11 | 41.96956 | -87.88037 | 672 ft | 12 kts | 192° |
| 2026-05-04 17:11 | 41.96886 | -87.88102 | 671 ft | 14 kts | 220° |
| 2026-05-04 17:11 | 41.96177 | -87.88938 | 672 ft | 134 kts | 221° |
| 2026-05-04 17:12 | 41.95409 | -87.89837 | 1093 ft | 151 kts | 221° |
| 2026-05-04 17:12 | 41.93777 | -87.91742 | 2638 ft | 159 kts | 221° |
| 2026-05-04 17:13 | 41.90436 | -87.93020 | 4548 ft | 203 kts | 168° |
| 2026-05-04 17:14 | 41.87328 | -87.88153 | 6108 ft | 270 kts | 118° |
| 2026-05-04 17:14 | 41.86686 | -87.85657 | 6661 ft | 295 kts | 106° |
| 2026-05-04 17:14 | 41.86148 | -87.79871 | 8126 ft | 325 kts | 97° |
| 2026-05-04 17:15 | 41.85945 | -87.76832 | 9186 ft | 326 kts | 96° |
| 2026-05-04 17:15 | 41.85623 | -87.70795 | 11240 ft | 328 kts | 95° |
| 2026-05-04 17:16 | 41.85274 | -87.64238 | 11962 ft | 374 kts | 96° |
| 2026-05-04 17:16 | 41.84764 | -87.53497 | 14218 ft | 393 kts | 88° |
| 2026-05-04 17:17 | 41.85243 | -87.49857 | 14922 ft | 398 kts | 76° |
| 2026-05-04 17:17 | 41.87268 | -87.38884 | 17106 ft | 410 kts | 75° |
| 2026-05-04 17:18 | 41.88025 | -87.35192 | 17739 ft | 415 kts | 73° |
| 2026-05-04 17:18 | 41.89708 | -87.27754 | 17981 ft | 416 kts | 71° |
| 2026-05-04 17:19 | 41.91430 | -87.20357 | 17989 ft | 416 kts | 72° |
| 2026-05-04 17:19 | 41.93111 | -87.12913 | 18443 ft | 419 kts | 72° |
| 2026-05-04 17:20 | 41.94500 | -87.05246 | 19786 ft | 426 kts | 83° |
| 2026-05-04 17:20 | 41.94694 | -86.97262 | 21063 ft | 432 kts | 89° |
| 2026-05-04 17:20 | 41.94752 | -86.93208 | 21688 ft | 436 kts | 89° |
| 2026-05-04 17:21 | 41.94879 | -86.84980 | 22842 ft | 444 kts | 89° |
| 2026-05-04 17:21 | 41.95009 | -86.76589 | 23859 ft | 451 kts | 88° |
| 2026-05-04 17:22 | 41.95070 | -86.72369 | 24341 ft | 453 kts | 88° |
| 2026-05-04 17:22 | 41.95127 | -86.68122 | 24813 ft | 456 kts | 88° |
| 2026-05-04 17:23 | 41.95278 | -86.55328 | 26176 ft | 463 kts | 88° |
| 2026-05-04 17:23 | 41.95330 | -86.50992 | 26649 ft | 465 kts | 88° |
| 2026-05-04 17:23 | 41.95430 | -86.42451 | 27534 ft | 469 kts | 88° |
| 2026-05-04 17:24 | 41.95479 | -86.38052 | 27971 ft | 472 kts | 88° |
| 2026-05-04 17:24 | 41.95591 | -86.24726 | 29215 ft | 480 kts | 90° |
| 2026-05-04 17:25 | 41.95293 | -86.20246 | 29602 ft | 483 kts | 98° |
| 2026-05-04 17:25 | 41.94652 | -86.16365 | 29922 ft | 486 kts | 104° |
| 2026-05-04 17:26 | 41.93811 | -86.12240 | 30208 ft | 488 kts | 105° |
| 2026-05-04 17:26 | 41.91199 | -85.98938 | 31133 ft | 493 kts | 104° |
| 2026-05-04 17:27 | 41.89464 | -85.90058 | 32055 ft | 490 kts | 104° |
| 2026-05-04 17:27 | 41.87708 | -85.81231 | 32892 ft | 489 kts | 104° |
| 2026-05-04 17:28 | 41.85941 | -85.72412 | 33723 ft | 489 kts | 104° |
| 2026-05-04 17:29 | 41.83288 | -85.59226 | 34814 ft | 488 kts | 105° |
| 2026-05-04 17:29 | 41.80634 | -85.46084 | 35802 ft | 488 kts | 105° |
| 2026-05-04 17:30 | 41.77954 | -85.32919 | 36725 ft | 489 kts | 105° |
| 2026-05-04 17:31 | 41.76164 | -85.24195 | 37352 ft | 489 kts | 105° |
| 2026-05-04 17:31 | 41.73453 | -85.11007 | 37740 ft | 490 kts | 106° |
| 2026-05-04 17:32 | 41.71633 | -85.02203 | 37736 ft | 491 kts | 105° |
| 2026-05-04 17:33 | 41.67964 | -84.84579 | 37739 ft | 492 kts | 106° |
| 2026-05-04 17:34 | 41.66356 | -84.71201 | 37748 ft | 491 kts | 92° |
| 2026-05-04 17:34 | 41.66170 | -84.66644 | 37760 ft | 491 kts | 92° |
| 2026-05-04 17:35 | 41.65170 | -84.43845 | 37767 ft | 493 kts | 92° |
| 2026-05-04 17:36 | 41.64828 | -84.36269 | 37772 ft | 493 kts | 92° |
| 2026-05-04 17:36 | 41.64414 | -84.27119 | 37773 ft | 493 kts | 92° |
| 2026-05-04 17:37 | 41.63999 | -84.17984 | 37770 ft | 493 kts | 92° |
| 2026-05-04 17:37 | 41.63565 | -84.08843 | 37764 ft | 492 kts | 92° |
| 2026-05-04 17:38 | 41.63123 | -83.99710 | 37758 ft | 492 kts | 92° |
| 2026-05-04 17:38 | 41.62683 | -83.90581 | 37775 ft | 492 kts | 92° |
| 2026-05-04 17:39 | 41.62008 | -83.76903 | 37781 ft | 492 kts | 92° |
| 2026-05-04 17:39 | 41.61546 | -83.67792 | 37775 ft | 492 kts | 92° |
| 2026-05-04 17:40 | 41.60737 | -83.58729 | 37790 ft | 492 kts | 104° |
| 2026-05-04 17:40 | 41.58802 | -83.49956 | 37771 ft | 492 kts | 107° |
| 2026-05-04 17:41 | 41.56836 | -83.41211 | 37779 ft | 492 kts | 107° |
| 2026-05-04 17:41 | 41.54870 | -83.32459 | 37774 ft | 492 kts | 107° |
| 2026-05-04 17:42 | 41.52900 | -83.23721 | 37777 ft | 492 kts | 107° |
| 2026-05-04 17:42 | 41.50926 | -83.14972 | 37788 ft | 492 kts | 107° |
| 2026-05-04 17:43 | 41.48942 | -83.06242 | 37779 ft | 492 kts | 107° |
| 2026-05-04 17:43 | 41.46944 | -82.97502 | 37796 ft | 492 kts | 107° |
| 2026-05-04 17:44 | 41.44958 | -82.88821 | 37800 ft | 493 kts | 107° |
| 2026-05-04 17:44 | 41.42960 | -82.80092 | 37802 ft | 493 kts | 107° |
| 2026-05-04 17:45 | 41.40938 | -82.71363 | 37801 ft | 493 kts | 107° |
| 2026-05-04 17:45 | 41.38615 | -82.62831 | 37806 ft | 492 kts | 118° |
| 2026-05-04 17:46 | 41.34750 | -82.55411 | 37819 ft | 488 kts | 136° |
| 2026-05-04 17:46 | 41.30001 | -82.48964 | 37804 ft | 487 kts | 137° |
| 2026-05-04 17:47 | 41.25264 | -82.42516 | 37814 ft | 487 kts | 137° |
| 2026-05-04 17:47 | 41.20524 | -82.36075 | 37827 ft | 488 kts | 136° |
| 2026-05-04 17:48 | 41.15767 | -82.29645 | 37828 ft | 488 kts | 137° |
| 2026-05-04 17:48 | 41.13388 | -82.26443 | 37510 ft | 487 kts | 137° |
| 2026-05-04 17:48 | 41.11014 | -82.23250 | 36955 ft | 485 kts | 136° |
| 2026-05-04 17:49 | 41.08646 | -82.20069 | 36768 ft | 484 kts | 136° |
| 2026-05-04 17:49 | 41.06279 | -82.16893 | 36838 ft | 485 kts | 136° |
| 2026-05-04 17:49 | 41.01543 | -82.10530 | 36845 ft | 486 kts | 136° |
| 2026-05-04 17:50 | 40.96784 | -82.04146 | 36854 ft | 486 kts | 136° |
| 2026-05-04 17:50 | 40.92033 | -81.97796 | 36859 ft | 486 kts | 136° |
| 2026-05-04 17:51 | 40.87275 | -81.91457 | 36859 ft | 486 kts | 136° |
| 2026-05-04 17:51 | 40.82518 | -81.85117 | 36851 ft | 486 kts | 136° |
| 2026-05-04 17:52 | 40.77744 | -81.78769 | 36845 ft | 486 kts | 136° |
| 2026-05-04 17:52 | 40.72973 | -81.72442 | 36858 ft | 486 kts | 136° |
| 2026-05-04 17:53 | 40.68209 | -81.66143 | 36851 ft | 486 kts | 136° |
| 2026-05-04 17:53 | 40.63459 | -81.59887 | 36856 ft | 486 kts | 136° |
| 2026-05-04 17:54 | 40.58682 | -81.53592 | 36884 ft | 486 kts | 136° |
| 2026-05-04 17:54 | 40.53902 | -81.47307 | 36886 ft | 486 kts | 136° |
| 2026-05-04 17:55 | 40.49101 | -81.41023 | 36886 ft | 486 kts | 136° |
| 2026-05-04 17:55 | 40.44316 | -81.34770 | 36884 ft | 486 kts | 136° |
| 2026-05-04 17:56 | 40.39529 | -81.28522 | 36883 ft | 486 kts | 136° |
| 2026-05-04 17:56 | 40.34731 | -81.22260 | 36883 ft | 486 kts | 136° |
| 2026-05-04 17:57 | 40.29943 | -81.16034 | 36893 ft | 486 kts | 136° |
| 2026-05-04 17:57 | 40.25148 | -81.09813 | 36876 ft | 485 kts | 136° |
| 2026-05-04 17:58 | 40.20342 | -81.03599 | 36889 ft | 485 kts | 136° |
| 2026-05-04 17:58 | 40.15543 | -80.97399 | 36883 ft | 485 kts | 136° |
| 2026-05-04 17:59 | 40.10771 | -80.91242 | 36863 ft | 485 kts | 136° |
| 2026-05-04 18:00 | 40.03561 | -80.81978 | 36883 ft | 485 kts | 136° |
| 2026-05-04 18:00 | 39.98826 | -80.75717 | 36896 ft | 485 kts | 135° |
| 2026-05-04 18:01 | 39.94168 | -80.69287 | 36902 ft | 485 kts | 134° |
| 2026-05-04 18:01 | 39.89538 | -80.62897 | 36903 ft | 484 kts | 134° |
| 2026-05-04 18:02 | 39.82535 | -80.53423 | 36902 ft | 484 kts | 135° |
| 2026-05-04 18:02 | 39.77885 | -80.47174 | 36909 ft | 484 kts | 135° |
| 2026-05-04 18:03 | 39.73214 | -80.40895 | 36908 ft | 483 kts | 135° |
| 2026-05-04 18:03 | 39.68537 | -80.34613 | 36910 ft | 483 kts | 135° |
| 2026-05-04 18:04 | 39.66207 | -80.31482 | 36764 ft | 483 kts | 135° |
| 2026-05-04 18:04 | 39.63873 | -80.28349 | 36107 ft | 482 kts | 135° |
| 2026-05-04 18:04 | 39.59195 | -80.22092 | 34675 ft | 483 kts | 136° |
| 2026-05-04 18:05 | 39.56854 | -80.18972 | 33949 ft | 484 kts | 136° |
| 2026-05-04 18:05 | 39.54501 | -80.15839 | 33095 ft | 485 kts | 136° |
| 2026-05-04 18:05 | 39.52144 | -80.12701 | 32210 ft | 486 kts | 136° |
| 2026-05-04 18:05 | 39.49782 | -80.09557 | 31385 ft | 487 kts | 136° |
| 2026-05-04 18:06 | 39.45060 | -80.03269 | 30884 ft | 488 kts | 136° |
| 2026-05-04 18:06 | 39.40318 | -79.96962 | 30943 ft | 489 kts | 136° |
| 2026-05-04 18:07 | 39.35555 | -79.90661 | 30937 ft | 491 kts | 137° |
| 2026-05-04 18:07 | 39.31360 | -79.83641 | 30961 ft | 499 kts | 120° |
| 2026-05-04 18:08 | 39.28950 | -79.75261 | 30969 ft | 499 kts | 101° |
| 2026-05-04 18:08 | 39.28117 | -79.66409 | 30970 ft | 497 kts | 94° |
| 2026-05-04 18:09 | 39.26703 | -79.48692 | 30230 ft | 492 kts | 95° |
| 2026-05-04 18:10 | 39.26345 | -79.44316 | 29788 ft | 490 kts | 95° |
| 2026-05-04 18:10 | 39.25987 | -79.39953 | 29357 ft | 486 kts | 95° |
| 2026-05-04 18:10 | 39.25632 | -79.35636 | 28928 ft | 481 kts | 95° |
| 2026-05-04 18:10 | 39.25280 | -79.31362 | 28511 ft | 478 kts | 95° |
| 2026-05-04 18:11 | 39.24932 | -79.27171 | 28092 ft | 475 kts | 95° |
| 2026-05-04 18:11 | 39.24581 | -79.22976 | 27721 ft | 465 kts | 95° |
| 2026-05-04 18:11 | 39.24233 | -79.18858 | 27322 ft | 456 kts | 95° |
| 2026-05-04 18:11 | 39.23880 | -79.14757 | 27058 ft | 453 kts | 95° |
| 2026-05-04 18:12 | 39.23536 | -79.10785 | 26789 ft | 451 kts | 95° |
| 2026-05-04 18:12 | 39.23191 | -79.06777 | 26526 ft | 449 kts | 95° |
| 2026-05-04 18:12 | 39.22854 | -79.02797 | 26299 ft | 446 kts | 95° |
| 2026-05-04 18:12 | 39.22517 | -78.98826 | 26127 ft | 445 kts | 95° |
| 2026-05-04 18:13 | 39.22174 | -78.94873 | 25785 ft | 442 kts | 95° |
| 2026-05-04 18:13 | 39.21812 | -78.90937 | 25114 ft | 442 kts | 96° |
| 2026-05-04 18:13 | 39.21049 | -78.83122 | 24021 ft | 434 kts | 96° |
| 2026-05-04 18:14 | 39.20663 | -78.79264 | 23363 ft | 432 kts | 96° |
| 2026-05-04 18:14 | 39.20282 | -78.75456 | 22781 ft | 427 kts | 96° |
| 2026-05-04 18:14 | 39.19906 | -78.71663 | 22189 ft | 422 kts | 96° |
| 2026-05-04 18:15 | 39.19179 | -78.64241 | 21088 ft | 415 kts | 96° |
| 2026-05-04 18:15 | 39.18456 | -78.56885 | 20033 ft | 412 kts | 97° |
| 2026-05-04 18:15 | 39.18095 | -78.53260 | 19642 ft | 406 kts | 97° |
| 2026-05-04 18:16 | 39.17737 | -78.49682 | 19023 ft | 402 kts | 97° |
| 2026-05-04 18:16 | 39.17383 | -78.46118 | 18411 ft | 398 kts | 97° |
| 2026-05-04 18:16 | 39.17034 | -78.42607 | 17812 ft | 392 kts | 97° |
| 2026-05-04 18:17 | 39.16201 | -78.35737 | 16822 ft | 386 kts | 106° |
| 2026-05-04 18:17 | 39.15388 | -78.32455 | 16500 ft | 383 kts | 109° |
| 2026-05-04 18:17 | 39.13760 | -78.25937 | 15792 ft | 380 kts | 109° |
| 2026-05-04 18:18 | 39.12958 | -78.22698 | 15440 ft | 379 kts | 108° |
| 2026-05-04 18:18 | 39.12162 | -78.19472 | 15092 ft | 377 kts | 108° |
| 2026-05-04 18:18 | 39.11369 | -78.16263 | 14738 ft | 376 kts | 109° |
| 2026-05-04 18:18 | 39.10572 | -78.13064 | 14387 ft | 374 kts | 109° |
| 2026-05-04 18:19 | 39.08975 | -78.06718 | 13696 ft | 371 kts | 109° |
| 2026-05-04 18:19 | 39.08169 | -78.03569 | 13326 ft | 370 kts | 109° |
| 2026-05-04 18:19 | 39.07366 | -78.00436 | 12993 ft | 367 kts | 109° |
| 2026-05-04 18:20 | 39.06569 | -77.97324 | 12651 ft | 365 kts | 109° |
| 2026-05-04 18:20 | 39.05774 | -77.94230 | 12323 ft | 361 kts | 109° |
| 2026-05-04 18:20 | 39.05009 | -77.91245 | 12191 ft | 343 kts | 110° |
| 2026-05-04 18:20 | 39.04276 | -77.88398 | 11981 ft | 330 kts | 110° |
| 2026-05-04 18:21 | 39.03555 | -77.85613 | 11605 ft | 324 kts | 110° |
| 2026-05-04 18:21 | 39.02851 | -77.82886 | 11359 ft | 319 kts | 110° |
| 2026-05-04 18:21 | 39.02155 | -77.80190 | 11132 ft | 317 kts | 110° |
| 2026-05-04 18:21 | 39.01462 | -77.77509 | 10896 ft | 315 kts | 110° |
| 2026-05-04 18:22 | 39.00779 | -77.74859 | 10645 ft | 313 kts | 110° |
| 2026-05-04 18:22 | 39.00327 | -77.73103 | 10488 ft | 312 kts | 110° |
| 2026-05-04 18:22 | 38.99648 | -77.70461 | 10240 ft | 310 kts | 110° |
| 2026-05-04 18:22 | 38.98975 | -77.67856 | 10036 ft | 302 kts | 110° |
| 2026-05-04 18:23 | 38.98313 | -77.65303 | 9624 ft | 300 kts | 110° |
| 2026-05-04 18:23 | 38.97615 | -77.62781 | 9198 ft | 298 kts | 112° |
| 2026-05-04 18:23 | 38.96886 | -77.60305 | 8793 ft | 295 kts | 113° |
| 2026-05-04 18:23 | 38.96147 | -77.57851 | 8334 ft | 294 kts | 113° |
| 2026-05-04 18:24 | 38.95406 | -77.55397 | 7830 ft | 295 kts | 113° |
| 2026-05-04 18:24 | 38.94896 | -77.52855 | 7387 ft | 295 kts | 96° |
| 2026-05-04 18:24 | 38.94973 | -77.50235 | 6968 ft | 293 kts | 79° |
| 2026-05-04 18:24 | 38.95606 | -77.47767 | 6544 ft | 290 kts | 65° |
| 2026-05-04 18:25 | 38.96405 | -77.45418 | 6273 ft | 282 kts | 65° |
| 2026-05-04 18:25 | 38.97171 | -77.43141 | 6057 ft | 271 kts | 66° |
| 2026-05-04 18:25 | 38.97884 | -77.41002 | 6001 ft | 255 kts | 66° |
| 2026-05-04 18:25 | 38.98557 | -77.38974 | 6004 ft | 238 kts | 66° |
| 2026-05-04 18:26 | 38.99185 | -77.37079 | 5941 ft | 226 kts | 66° |
| 2026-05-04 18:26 | 38.99792 | -77.35251 | 5827 ft | 218 kts | 66° |
| 2026-05-04 18:26 | 39.00382 | -77.33480 | 5589 ft | 214 kts | 67° |
| 2026-05-04 18:26 | 39.00965 | -77.31735 | 5309 ft | 213 kts | 67° |
| 2026-05-04 18:27 | 39.01549 | -77.29994 | 5018 ft | 212 kts | 67° |
| 2026-05-04 18:27 | 39.02135 | -77.28257 | 4773 ft | 210 kts | 68° |
| 2026-05-04 18:27 | 39.02554 | -77.26509 | 4597 ft | 201 kts | 84° |
| 2026-05-04 18:27 | 39.02574 | -77.24754 | 4421 ft | 193 kts | 101° |
| 2026-05-04 18:28 | 39.02235 | -77.23125 | 4196 ft | 188 kts | 117° |
| 2026-05-04 18:28 | 39.01593 | -77.21708 | 3960 ft | 182 kts | 133° |
| 2026-05-04 18:28 | 39.00746 | -77.20527 | 3725 ft | 180 kts | 138° |
| 2026-05-04 18:28 | 38.99912 | -77.19349 | 3559 ft | 176 kts | 137° |
| 2026-05-04 18:29 | 38.99074 | -77.18221 | 3354 ft | 174 kts | 139° |
| 2026-05-04 18:29 | 38.98214 | -77.17115 | 3125 ft | 175 kts | 140° |
| 2026-05-04 18:29 | 38.97321 | -77.16024 | 2808 ft | 180 kts | 141° |
| 2026-05-04 18:29 | 38.96389 | -77.14930 | 2492 ft | 183 kts | 141° |
| 2026-05-04 18:30 | 38.94467 | -77.12861 | 1946 ft | 178 kts | 145° |
| 2026-05-04 18:30 | 38.93481 | -77.11932 | 1613 ft | 174 kts | 151° |
| 2026-05-04 18:30 | 38.92509 | -77.11053 | 1318 ft | 170 kts | 150° |
| 2026-05-04 18:31 | 38.91539 | -77.10199 | 1116 ft | 168 kts | 149° |
| 2026-05-04 18:31 | 38.90720 | -77.09119 | 1001 ft | 169 kts | 132° |
| 2026-05-04 18:31 | 38.90328 | -77.07809 | 818 ft | 148 kts | 108° |
| 2026-05-04 18:31 | 38.89962 | -77.06669 | 701 ft | 133 kts | 127° |
| 2026-05-04 18:32 | 38.89327 | -77.05869 | 634 ft | 124 kts | 145° |
| 2026-05-04 18:32 | 38.88665 | -77.05183 | 637 ft | 122 kts | 147° |
| 2026-05-04 18:32 | 38.87982 | -77.04541 | 393 ft | 123 kts | 149° |
| 2026-05-04 18:32 | 38.87235 | -77.04047 | 293 ft | 120 kts | 166° |
| 2026-05-04 18:33 | 38.86410 | -77.03896 | 133 ft | 120 kts | 177° |
| 2026-05-04 18:33 | 38.85595 | -77.03821 | 29 ft | 109 kts | 176° |
| 2026-05-04 18:33 | 38.85042 | -77.03771 | 26 ft | 39 kts | 175° |
| 2026-05-04 18:33 | 38.84893 | -77.03803 | 23 ft | 13 kts | 232° |
| 2026-05-04 18:34 | 38.84905 | -77.03888 | 24 ft | 11 kts | 335° |
| 2026-05-04 18:34 | 38.84988 | -77.03899 | 24 ft | 13 kts | 355° |
| 2026-05-04 18:34 | 38.85085 | -77.03910 | 24 ft | 15 kts | 355° |